sensor_id;sensor_type;location;lat;lon;timestamp;temperature;humidity
19654;DHT22;9975;48.046;7.804;2023-01-04T01:57:13;2.30;99.90
19654;DHT22;9975;48.046;7.804;2023-01-04T01:59:41;2.30;99.90
19654;DHT22;9975;48.046;7.804;2023-01-04T02:02:09;2.30;99.90
19654;DHT22;9975;48.046;7.804;2023-01-04T02:04:37;2.30;99.90
19654;DHT22;9975;48.046;7.804;2023-01-04T02:07:04;2.50;99.90
19654;DHT22;9975;48.046;7.804;2023-01-04T02:09:31;2.90;99.90
19654;DHT22;9975;48.046;7.804;2023-01-04T02:11:57;2.40;99.90
19654;DHT22;9975;48.046;7.804;2023-01-04T02:14:23;2.20;99.90
19654;DHT22;9975;48.046;7.804;2023-01-04T02:19:47;2.00;99.90
19654;DHT22;9975;48.046;7.804;2023-01-04T02:30:53;2.00;99.90
19654;DHT22;9975;48.046;7.804;2023-01-04T02:34:07;2.00;99.90
19654;DHT22;9975;48.046;7.804;2023-01-04T02:45:21;1.70;99.90
19654;DHT22;9975;48.046;7.804;2023-01-04T02:47:49;1.60;99.90
19654;DHT22;9975;48.046;7.804;2023-01-04T02:50:38;1.60;99.90
19654;DHT22;9975;48.046;7.804;2023-01-04T03:04:02;1.30;99.90
19654;DHT22;9975;48.046;7.804;2023-01-04T03:06:58;1.20;99.90
19654;DHT22;9975;48.046;7.804;2023-01-04T03:09:29;1.20;99.90
19654;DHT22;9975;48.046;7.804;2023-01-04T03:12:01;1.30;99.90
19654;DHT22;9975;48.046;7.804;2023-01-04T03:14:52;1.20;99.90
19654;DHT22;9975;48.046;7.804;2023-01-04T03:17:25;1.10;99.90
19654;DHT22;9975;48.046;7.804;2023-01-04T03:19:52;1.10;99.90
19654;DHT22;9975;48.046;7.804;2023-01-04T03:22:29;1.10;99.90
19654;DHT22;9975;48.046;7.804;2023-01-04T03:25:18;1.00;99.90
19654;DHT22;9975;48.046;7.804;2023-01-04T03:28:06;1.00;99.90
19654;DHT22;9975;48.046;7.804;2023-01-04T03:31:12;1.00;99.90
19654;DHT22;9975;48.046;7.804;2023-01-04T03:33:57;0.90;99.90
19654;DHT22;9975;48.046;7.804;2023-01-04T03:36:53;0.90;99.90
19654;DHT22;9975;48.046;7.804;2023-01-04T03:39:30;0.90;99.90
19654;DHT22;9975;48.046;7.804;2023-01-04T03:45:39;1.60;99.90
19654;DHT22;9975;48.046;7.804;2023-01-04T03:48:40;1.20;99.90
19654;DHT22;9975;48.046;7.804;2023-01-04T03:51:17;1.20;99.90
19654;DHT22;9975;48.046;7.804;2023-01-04T03:54:07;1.20;99.90
19654;DHT22;9975;48.046;7.804;2023-01-04T03:56:36;1.20;99.90
19654;DHT22;9975;48.046;7.804;2023-01-04T03:59:03;1.20;99.90
19654;DHT22;9975;48.046;7.804;2023-01-04T04:01:30;1.20;99.90
19654;DHT22;9975;48.046;7.804;2023-01-04T04:03:55;1.20;99.90
19654;DHT22;9975;48.046;7.804;2023-01-04T04:09:24;1.50;99.90
19654;DHT22;9975;48.046;7.804;2023-01-04T04:11:50;1.70;99.90
19654;DHT22;9975;48.046;7.804;2023-01-04T04:14:15;2.00;99.90
19654;DHT22;9975;48.046;7.804;2023-01-04T04:16:41;2.00;99.90
19654;DHT22;9975;48.046;7.804;2023-01-04T04:19:07;2.60;99.90
19654;DHT22;9975;48.046;7.804;2023-01-04T04:21:32;3.10;99.90
19654;DHT22;9975;48.046;7.804;2023-01-04T04:23:58;4.40;99.90
19654;DHT22;9975;48.046;7.804;2023-01-04T04:26:24;4.00;99.90
19654;DHT22;9975;48.046;7.804;2023-01-04T04:28:50;4.30;99.90
19654;DHT22;9975;48.046;7.804;2023-01-04T04:31:16;5.10;99.90
19654;DHT22;9975;48.046;7.804;2023-01-04T04:33:42;5.40;99.90
19654;DHT22;9975;48.046;7.804;2023-01-04T04:36:08;5.60;99.90
19654;DHT22;9975;48.046;7.804;2023-01-04T04:38:34;5.90;99.90
19654;DHT22;9975;48.046;7.804;2023-01-04T04:41:05;6.00;99.90
19654;DHT22;9975;48.046;7.804;2023-01-04T04:43:49;6.20;99.90
19654;DHT22;9975;48.046;7.804;2023-01-04T04:46:15;6.20;99.90
19654;DHT22;9975;48.046;7.804;2023-01-04T04:48:41;6.30;99.90
19654;DHT22;9975;48.046;7.804;2023-01-04T04:51:06;6.40;99.90
19654;DHT22;9975;48.046;7.804;2023-01-04T04:53:32;6.60;99.90
19654;DHT22;9975;48.046;7.804;2023-01-04T04:55:57;6.80;99.90
19654;DHT22;9975;48.046;7.804;2023-01-04T04:58:23;6.90;99.90
19654;DHT22;9975;48.046;7.804;2023-01-04T05:00:49;6.80;99.90
19654;DHT22;9975;48.046;7.804;2023-01-04T05:03:14;6.90;99.90
19654;DHT22;9975;48.046;7.804;2023-01-04T05:05:40;7.20;99.90
19654;DHT22;9975;48.046;7.804;2023-01-04T05:08:06;7.20;99.90
19654;DHT22;9975;48.046;7.804;2023-01-04T05:10:32;7.30;99.90
19654;DHT22;9975;48.046;7.804;2023-01-04T05:12:57;7.40;99.90
19654;DHT22;9975;48.046;7.804;2023-01-04T05:15:29;7.40;99.90
19654;DHT22;9975;48.046;7.804;2023-01-04T05:17:56;7.50;99.90
19654;DHT22;9975;48.046;7.804;2023-01-04T05:20:22;7.60;99.90
19654;DHT22;9975;48.046;7.804;2023-01-04T05:22:47;7.60;99.90
19654;DHT22;9975;48.046;7.804;2023-01-04T05:25:13;7.50;99.90
19654;DHT22;9975;48.046;7.804;2023-01-04T05:27:39;7.60;99.90
19654;DHT22;9975;48.046;7.804;2023-01-04T05:30:05;7.70;99.90
19654;DHT22;9975;48.046;7.804;2023-01-04T05:32:49;7.70;99.90
19654;DHT22;9975;48.046;7.804;2023-01-04T05:35:16;7.80;99.90
19654;DHT22;9975;48.046;7.804;2023-01-04T05:37:42;7.70;99.90
19654;DHT22;9975;48.046;7.804;2023-01-04T05:40:08;7.80;99.90
19654;DHT22;9975;48.046;7.804;2023-01-04T05:42:34;7.80;99.90
19654;DHT22;9975;48.046;7.804;2023-01-04T05:44:59;7.70;99.90
19654;DHT22;9975;48.046;7.804;2023-01-04T05:47:26;7.80;99.90
19654;DHT22;9975;48.046;7.804;2023-01-04T05:49:52;7.90;99.90
19654;DHT22;9975;48.046;7.804;2023-01-04T05:52:19;7.90;99.90
19654;DHT22;9975;48.046;7.804;2023-01-04T05:54:45;8.10;99.90
19654;DHT22;9975;48.046;7.804;2023-01-04T05:57:11;8.00;99.90
19654;DHT22;9975;48.046;7.804;2023-01-04T05:59:37;8.00;99.90
19654;DHT22;9975;48.046;7.804;2023-01-04T06:02:04;8.10;99.90
19654;DHT22;9975;48.046;7.804;2023-01-04T06:04:30;8.20;99.90
19654;DHT22;9975;48.046;7.804;2023-01-04T06:06:56;8.20;99.90
19654;DHT22;9975;48.046;7.804;2023-01-04T06:09:21;8.30;99.90
19654;DHT22;9975;48.046;7.804;2023-01-04T06:11:49;8.30;99.90
19654;DHT22;9975;48.046;7.804;2023-01-04T06:14:15;8.30;99.90
19654;DHT22;9975;48.046;7.804;2023-01-04T06:16:40;8.50;99.90
19654;DHT22;9975;48.046;7.804;2023-01-04T06:19:06;8.50;99.90
19654;DHT22;9975;48.046;7.804;2023-01-04T06:21:31;8.40;99.90
19654;DHT22;9975;48.046;7.804;2023-01-04T06:23:57;8.40;99.90
19654;DHT22;9975;48.046;7.804;2023-01-04T06:26:23;8.40;99.90
19654;DHT22;9975;48.046;7.804;2023-01-04T06:28:48;8.50;99.90
19654;DHT22;9975;48.046;7.804;2023-01-04T06:31:14;8.50;99.90
19654;DHT22;9975;48.046;7.804;2023-01-04T06:33:39;8.50;99.90
19654;DHT22;9975;48.046;7.804;2023-01-04T06:36:06;8.50;99.90
19654;DHT22;9975;48.046;7.804;2023-01-04T06:38:32;8.50;99.90
19654;DHT22;9975;48.046;7.804;2023-01-04T06:40:58;8.60;99.90
19654;DHT22;9975;48.046;7.804;2023-01-04T06:43:24;8.70;99.90
19654;DHT22;9975;48.046;7.804;2023-01-04T06:45:50;8.70;99.90
19654;DHT22;9975;48.046;7.804;2023-01-04T06:48:15;8.80;99.90
19654;DHT22;9975;48.046;7.804;2023-01-04T06:50:41;8.80;99.90
19654;DHT22;9975;48.046;7.804;2023-01-04T06:53:07;8.80;99.90
19654;DHT22;9975;48.046;7.804;2023-01-04T06:55:33;8.80;99.90
19654;DHT22;9975;48.046;7.804;2023-01-04T06:57:59;8.80;99.90
19654;DHT22;9975;48.046;7.804;2023-01-04T07:00:25;8.80;99.90
19654;DHT22;9975;48.046;7.804;2023-01-04T07:02:50;8.90;99.90
19654;DHT22;9975;48.046;7.804;2023-01-04T07:05:16;8.90;99.90
19654;DHT22;9975;48.046;7.804;2023-01-04T07:07:42;8.90;99.90
19654;DHT22;9975;48.046;7.804;2023-01-04T07:10:08;8.90;99.90
19654;DHT22;9975;48.046;7.804;2023-01-04T07:12:34;9.00;99.90
19654;DHT22;9975;48.046;7.804;2023-01-04T07:15:00;8.90;99.90
19654;DHT22;9975;48.046;7.804;2023-01-04T07:17:26;8.90;99.90
19654;DHT22;9975;48.046;7.804;2023-01-04T07:19:51;8.90;99.90
19654;DHT22;9975;48.046;7.804;2023-01-04T07:22:17;8.90;99.90
19654;DHT22;9975;48.046;7.804;2023-01-04T07:24:43;9.00;99.90
19654;DHT22;9975;48.046;7.804;2023-01-04T07:27:10;9.10;99.90
19654;DHT22;9975;48.046;7.804;2023-01-04T07:29:36;9.10;99.90
19654;DHT22;9975;48.046;7.804;2023-01-04T07:32:02;9.20;99.90
19654;DHT22;9975;48.046;7.804;2023-01-04T07:34:27;9.20;99.90
19654;DHT22;9975;48.046;7.804;2023-01-04T07:36:53;9.20;99.90
19654;DHT22;9975;48.046;7.804;2023-01-04T07:39:20;9.20;99.90
19654;DHT22;9975;48.046;7.804;2023-01-04T07:41:47;9.20;99.90
19654;DHT22;9975;48.046;7.804;2023-01-04T07:44:13;9.30;99.90
19654;DHT22;9975;48.046;7.804;2023-01-04T07:46:39;9.20;99.90
19654;DHT22;9975;48.046;7.804;2023-01-04T07:49:06;9.10;99.90
19654;DHT22;9975;48.046;7.804;2023-01-04T07:51:32;9.20;99.90
19654;DHT22;9975;48.046;7.804;2023-01-04T07:53:58;9.10;99.90
19654;DHT22;9975;48.046;7.804;2023-01-04T07:56:24;8.90;99.90
19654;DHT22;9975;48.046;7.804;2023-01-04T07:58:50;9.00;99.90
19654;DHT22;9975;48.046;7.804;2023-01-04T08:01:17;9.00;99.90
19654;DHT22;9975;48.046;7.804;2023-01-04T08:03:46;8.90;99.90
19654;DHT22;9975;48.046;7.804;2023-01-04T08:06:13;8.90;99.90
19654;DHT22;9975;48.046;7.804;2023-01-04T08:08:40;8.80;99.90
19654;DHT22;9975;48.046;7.804;2023-01-04T08:11:12;8.80;99.90
19654;DHT22;9975;48.046;7.804;2023-01-04T08:13:39;8.70;99.90
19654;DHT22;9975;48.046;7.804;2023-01-04T08:16:05;8.70;99.90
19654;DHT22;9975;48.046;7.804;2023-01-04T08:18:31;8.70;99.90
19654;DHT22;9975;48.046;7.804;2023-01-04T08:21:05;8.70;99.90
19654;DHT22;9975;48.046;7.804;2023-01-04T08:23:31;8.60;99.90
19654;DHT22;9975;48.046;7.804;2023-01-04T08:26:04;8.60;99.90
19654;DHT22;9975;48.046;7.804;2023-01-04T08:28:31;8.60;99.90
19654;DHT22;9975;48.046;7.804;2023-01-04T08:30:57;8.60;99.90
19654;DHT22;9975;48.046;7.804;2023-01-04T08:33:23;8.60;99.90
19654;DHT22;9975;48.046;7.804;2023-01-04T08:35:48;8.60;99.90
19654;DHT22;9975;48.046;7.804;2023-01-04T08:38:14;8.50;99.90
19654;DHT22;9975;48.046;7.804;2023-01-04T08:40:40;8.50;99.90
19654;DHT22;9975;48.046;7.804;2023-01-04T08:43:06;8.40;99.90
19654;DHT22;9975;48.046;7.804;2023-01-04T08:45:31;8.50;99.90
19654;DHT22;9975;48.046;7.804;2023-01-04T08:47:57;8.40;99.90
19654;DHT22;9975;48.046;7.804;2023-01-04T08:50:22;8.40;99.90
19654;DHT22;9975;48.046;7.804;2023-01-04T08:52:48;8.30;99.90
19654;DHT22;9975;48.046;7.804;2023-01-04T08:55:14;8.30;99.90
19654;DHT22;9975;48.046;7.804;2023-01-04T08:57:41;8.30;99.90
19654;DHT22;9975;48.046;7.804;2023-01-04T09:00:07;8.30;99.90
19654;DHT22;9975;48.046;7.804;2023-01-04T09:02:33;8.30;99.90
19654;DHT22;9975;48.046;7.804;2023-01-04T09:04:59;8.30;99.90
19654;DHT22;9975;48.046;7.804;2023-01-04T09:07:28;8.30;99.90
19654;DHT22;9975;48.046;7.804;2023-01-04T09:09:54;8.30;99.90
19654;DHT22;9975;48.046;7.804;2023-01-04T09:12:22;8.40;99.90
19654;DHT22;9975;48.046;7.804;2023-01-04T09:14:47;8.50;99.90
19654;DHT22;9975;48.046;7.804;2023-01-04T09:17:13;8.50;99.90
19654;DHT22;9975;48.046;7.804;2023-01-04T09:19:38;8.50;99.90
19654;DHT22;9975;48.046;7.804;2023-01-04T09:22:04;8.70;99.90
19654;DHT22;9975;48.046;7.804;2023-01-04T09:24:32;8.50;99.90
19654;DHT22;9975;48.046;7.804;2023-01-04T09:26:58;8.70;99.90
19654;DHT22;9975;48.046;7.804;2023-01-04T09:29:24;8.70;99.90
19654;DHT22;9975;48.046;7.804;2023-01-04T09:31:50;8.80;99.90
19654;DHT22;9975;48.046;7.804;2023-01-04T09:36:43;8.80;99.90
19654;DHT22;9975;48.046;7.804;2023-01-04T09:39:09;8.90;99.90
19654;DHT22;9975;48.046;7.804;2023-01-04T09:41:36;8.90;99.90
19654;DHT22;9975;48.046;7.804;2023-01-04T09:44:30;9.00;99.90
19654;DHT22;9975;48.046;7.804;2023-01-04T09:49:28;9.10;99.90
19654;DHT22;9975;48.046;7.804;2023-01-04T09:51:59;9.30;99.90
19654;DHT22;9975;48.046;7.804;2023-01-04T09:54:52;9.20;99.90
19654;DHT22;9975;48.046;7.804;2023-01-04T09:57:34;9.20;99.90
19654;DHT22;9975;48.046;7.804;2023-01-04T10:00:05;9.20;99.90
19654;DHT22;9975;48.046;7.804;2023-01-04T10:03:00;9.30;99.90
19654;DHT22;9975;48.046;7.804;2023-01-04T10:05:30;9.30;99.90
19654;DHT22;9975;48.046;7.804;2023-01-04T10:07:57;9.30;99.90
19654;DHT22;9975;48.046;7.804;2023-01-04T10:19:01;9.30;99.90
19654;DHT22;9975;48.046;7.804;2023-01-04T10:26:47;9.40;99.90
19654;DHT22;9975;48.046;7.804;2023-01-04T10:29:35;9.40;99.90
19654;DHT22;9975;48.046;7.804;2023-01-04T10:34:47;9.40;99.90
19654;DHT22;9975;48.046;7.804;2023-01-04T10:37:14;9.30;99.90
19654;DHT22;9975;48.046;7.804;2023-01-04T10:39:42;9.30;99.90
19654;DHT22;9975;48.046;7.804;2023-01-04T10:45:09;9.30;99.90
19654;DHT22;9975;48.046;7.804;2023-01-04T10:50:38;9.30;99.90
19654;DHT22;9975;48.046;7.804;2023-01-04T10:58:31;9.30;99.90
19654;DHT22;9975;48.046;7.804;2023-01-04T11:01:13;9.30;99.90
19654;DHT22;9975;48.046;7.804;2023-01-04T11:06:54;9.30;99.90
19654;DHT22;9975;48.046;7.804;2023-01-04T11:09:25;9.30;99.90
19654;DHT22;9975;48.046;7.804;2023-01-04T11:11:54;9.30;99.90
19654;DHT22;9975;48.046;7.804;2023-01-04T11:14:21;9.20;99.90
19654;DHT22;9975;48.046;7.804;2023-01-04T11:16:50;9.20;99.90
19654;DHT22;9975;48.046;7.804;2023-01-04T11:19:16;9.20;99.90
19654;DHT22;9975;48.046;7.804;2023-01-04T11:21:50;9.30;99.90
19654;DHT22;9975;48.046;7.804;2023-01-04T11:24:21;9.30;99.90
19654;DHT22;9975;48.046;7.804;2023-01-04T11:26:48;9.30;99.90
19654;DHT22;9975;48.046;7.804;2023-01-04T11:32:18;9.40;99.90
19654;DHT22;9975;48.046;7.804;2023-01-04T11:34:52;9.40;99.90
19654;DHT22;9975;48.046;7.804;2023-01-04T11:37:44;9.30;99.30
19654;DHT22;9975;48.046;7.804;2023-01-04T11:40:16;9.40;99.70
19654;DHT22;9975;48.046;7.804;2023-01-04T11:42:47;9.40;99.20
19654;DHT22;9975;48.046;7.804;2023-01-04T11:45:19;9.50;99.00
19654;DHT22;9975;48.046;7.804;2023-01-04T11:47:52;9.50;99.00
19654;DHT22;9975;48.046;7.804;2023-01-04T11:50:34;9.60;98.80
19654;DHT22;9975;48.046;7.804;2023-01-04T11:53:00;9.50;98.50
19654;DHT22;9975;48.046;7.804;2023-01-04T11:55:28;9.60;98.60
19654;DHT22;9975;48.046;7.804;2023-01-04T11:58:10;9.60;98.00
19654;DHT22;9975;48.046;7.804;2023-01-04T12:00:37;9.60;97.70
19654;DHT22;9975;48.046;7.804;2023-01-04T12:03:38;9.70;97.50
19654;DHT22;9975;48.046;7.804;2023-01-04T12:06:16;9.70;97.70
19654;DHT22;9975;48.046;7.804;2023-01-04T12:08:42;9.60;97.50
19654;DHT22;9975;48.046;7.804;2023-01-04T12:11:25;9.70;97.70
19654;DHT22;9975;48.046;7.804;2023-01-04T12:13:52;9.70;97.90
19654;DHT22;9975;48.046;7.804;2023-01-04T12:16:49;9.70;98.00
19654;DHT22;9975;48.046;7.804;2023-01-04T12:19:16;9.80;98.20
19654;DHT22;9975;48.046;7.804;2023-01-04T12:22:03;9.70;98.10
19654;DHT22;9975;48.046;7.804;2023-01-04T12:24:30;9.80;98.00
19654;DHT22;9975;48.046;7.804;2023-01-04T12:26:58;9.80;98.30
19654;DHT22;9975;48.046;7.804;2023-01-04T12:31:52;9.80;98.60
19654;DHT22;9975;48.046;7.804;2023-01-04T12:50:14;9.90;99.90
19654;DHT22;9975;48.046;7.804;2023-01-04T12:55:26;9.90;99.90
19654;DHT22;9975;48.046;7.804;2023-01-04T13:05:53;9.80;99.90
19654;DHT22;9975;48.046;7.804;2023-01-04T13:08:20;9.80;99.90
19654;DHT22;9975;48.046;7.804;2023-01-04T13:10:51;9.80;99.90
19654;DHT22;9975;48.046;7.804;2023-01-04T13:18:37;9.90;99.90
19654;DHT22;9975;48.046;7.804;2023-01-04T13:21:19;9.90;99.90
19654;DHT22;9975;48.046;7.804;2023-01-04T13:23:53;9.90;99.90
19654;DHT22;9975;48.046;7.804;2023-01-04T13:26:39;10.00;99.90
19654;DHT22;9975;48.046;7.804;2023-01-04T13:31:30;10.00;99.90
19654;DHT22;9975;48.046;7.804;2023-01-04T13:33:56;10.00;99.90
19654;DHT22;9975;48.046;7.804;2023-01-04T13:36:22;10.00;99.90
19654;DHT22;9975;48.046;7.804;2023-01-04T13:38:48;10.00;99.90
19654;DHT22;9975;48.046;7.804;2023-01-04T13:41:19;9.90;99.90
19654;DHT22;9975;48.046;7.804;2023-01-04T13:44:01;10.00;99.90
19654;DHT22;9975;48.046;7.804;2023-01-04T13:46:30;10.00;99.90
19654;DHT22;9975;48.046;7.804;2023-01-04T13:48:59;10.00;99.90
19654;DHT22;9975;48.046;7.804;2023-01-04T13:51:29;10.10;99.90
19654;DHT22;9975;48.046;7.804;2023-01-04T13:53:59;10.00;99.90
19654;DHT22;9975;48.046;7.804;2023-01-04T13:56:30;10.00;99.90
19654;DHT22;9975;48.046;7.804;2023-01-04T13:58:56;10.00;99.90
19654;DHT22;9975;48.046;7.804;2023-01-04T14:01:28;10.00;99.90
19654;DHT22;9975;48.046;7.804;2023-01-04T14:04:05;10.00;99.90
19654;DHT22;9975;48.046;7.804;2023-01-04T14:06:46;10.00;99.90
19654;DHT22;9975;48.046;7.804;2023-01-04T14:09:15;10.20;99.90
19654;DHT22;9975;48.046;7.804;2023-01-04T14:11:46;10.00;99.90
19654;DHT22;9975;48.046;7.804;2023-01-04T14:14:53;10.10;99.90
19654;DHT22;9975;48.046;7.804;2023-01-04T14:22:53;10.10;99.90
19654;DHT22;9975;48.046;7.804;2023-01-04T14:31:14;10.20;99.90
19654;DHT22;9975;48.046;7.804;2023-01-04T14:33:44;10.10;99.90
19654;DHT22;9975;48.046;7.804;2023-01-04T14:41:40;10.00;99.90
19654;DHT22;9975;48.046;7.804;2023-01-04T14:47:09;10.00;99.90
19654;DHT22;9975;48.046;7.804;2023-01-04T14:49:35;10.10;99.90
19654;DHT22;9975;48.046;7.804;2023-01-04T14:52:02;10.00;99.90
19654;DHT22;9975;48.046;7.804;2023-01-04T14:54:33;9.90;99.90
19654;DHT22;9975;48.046;7.804;2023-01-04T14:56:59;10.00;99.90
19654;DHT22;9975;48.046;7.804;2023-01-04T14:59:25;10.10;99.90
19654;DHT22;9975;48.046;7.804;2023-01-04T15:01:52;10.00;99.90
19654;DHT22;9975;48.046;7.804;2023-01-04T15:04:18;10.00;99.90
19654;DHT22;9975;48.046;7.804;2023-01-04T15:06:53;10.00;99.90
19654;DHT22;9975;48.046;7.804;2023-01-04T15:09:19;9.90;99.90
19654;DHT22;9975;48.046;7.804;2023-01-04T15:11:45;10.00;99.90
19654;DHT22;9975;48.046;7.804;2023-01-04T15:14:11;10.10;99.90
19654;DHT22;9975;48.046;7.804;2023-01-04T15:16:37;10.00;99.90
19654;DHT22;9975;48.046;7.804;2023-01-04T15:19:03;9.90;99.90
19654;DHT22;9975;48.046;7.804;2023-01-04T15:21:29;9.90;99.90
19654;DHT22;9975;48.046;7.804;2023-01-04T15:23:54;9.90;99.90
19654;DHT22;9975;48.046;7.804;2023-01-04T15:26:20;9.80;99.90
19654;DHT22;9975;48.046;7.804;2023-01-04T15:28:46;9.80;99.90
19654;DHT22;9975;48.046;7.804;2023-01-04T15:31:13;9.90;99.90
19654;DHT22;9975;48.046;7.804;2023-01-04T15:33:39;9.90;99.90
19654;DHT22;9975;48.046;7.804;2023-01-04T15:36:10;9.90;99.90
19654;DHT22;9975;48.046;7.804;2023-01-04T15:38:36;9.90;99.90
19654;DHT22;9975;48.046;7.804;2023-01-04T15:41:05;9.90;99.90
19654;DHT22;9975;48.046;7.804;2023-01-04T15:43:35;9.90;99.90
19654;DHT22;9975;48.046;7.804;2023-01-04T15:46:05;9.80;99.90
19654;DHT22;9975;48.046;7.804;2023-01-04T15:48:35;9.90;99.90
19654;DHT22;9975;48.046;7.804;2023-01-04T15:51:03;9.70;99.90
19654;DHT22;9975;48.046;7.804;2023-01-04T15:53:28;9.70;99.90
19654;DHT22;9975;48.046;7.804;2023-01-04T15:56:03;9.70;99.90
19654;DHT22;9975;48.046;7.804;2023-01-04T15:58:29;9.70;99.90
19654;DHT22;9975;48.046;7.804;2023-01-04T16:00:55;9.70;99.90
19654;DHT22;9975;48.046;7.804;2023-01-04T16:03:20;9.70;99.90
19654;DHT22;9975;48.046;7.804;2023-01-04T16:05:46;9.80;99.90
19654;DHT22;9975;48.046;7.804;2023-01-04T16:08:11;9.70;99.90
19654;DHT22;9975;48.046;7.804;2023-01-04T16:10:37;9.70;99.90
19654;DHT22;9975;48.046;7.804;2023-01-04T16:13:03;9.80;99.90
19654;DHT22;9975;48.046;7.804;2023-01-04T16:15:28;9.70;99.90
19654;DHT22;9975;48.046;7.804;2023-01-04T16:17:54;9.80;99.90
19654;DHT22;9975;48.046;7.804;2023-01-04T16:20:20;9.70;99.90
19654;DHT22;9975;48.046;7.804;2023-01-04T16:22:46;9.80;99.90
19654;DHT22;9975;48.046;7.804;2023-01-04T16:25:12;9.80;99.90
19654;DHT22;9975;48.046;7.804;2023-01-04T16:27:38;9.80;99.90
19654;DHT22;9975;48.046;7.804;2023-01-04T16:30:07;9.80;99.90
19654;DHT22;9975;48.046;7.804;2023-01-04T16:32:34;9.70;99.90
19654;DHT22;9975;48.046;7.804;2023-01-04T16:37:28;9.80;99.90
19654;DHT22;9975;48.046;7.804;2023-01-04T16:39:57;9.90;99.90
19654;DHT22;9975;48.046;7.804;2023-01-04T16:42:22;9.90;99.90
19654;DHT22;9975;48.046;7.804;2023-01-04T16:44:48;9.90;99.90
19654;DHT22;9975;48.046;7.804;2023-01-04T16:47:14;9.90;99.90
19654;DHT22;9975;48.046;7.804;2023-01-04T16:49:39;9.90;99.90
19654;DHT22;9975;48.046;7.804;2023-01-04T16:52:05;9.90;99.90
19654;DHT22;9975;48.046;7.804;2023-01-04T16:54:35;9.80;99.90
19654;DHT22;9975;48.046;7.804;2023-01-04T16:57:00;10.00;99.90
19654;DHT22;9975;48.046;7.804;2023-01-04T16:59:26;10.10;99.90
19654;DHT22;9975;48.046;7.804;2023-01-04T17:01:52;10.00;99.90
19654;DHT22;9975;48.046;7.804;2023-01-04T17:04:18;10.10;99.90
19654;DHT22;9975;48.046;7.804;2023-01-04T17:06:44;10.10;99.90
19654;DHT22;9975;48.046;7.804;2023-01-04T17:09:18;10.10;99.90
19654;DHT22;9975;48.046;7.804;2023-01-04T17:11:46;10.20;99.90
19654;DHT22;9975;48.046;7.804;2023-01-04T17:14:22;10.10;99.90
19654;DHT22;9975;48.046;7.804;2023-01-04T17:16:49;10.20;99.90
19654;DHT22;9975;48.046;7.804;2023-01-04T17:19:15;10.10;99.90
19654;DHT22;9975;48.046;7.804;2023-01-04T17:21:41;10.20;99.90
19654;DHT22;9975;48.046;7.804;2023-01-04T17:24:06;10.20;99.90
19654;DHT22;9975;48.046;7.804;2023-01-04T17:26:32;10.20;99.90
19654;DHT22;9975;48.046;7.804;2023-01-04T17:28:59;10.20;99.90
19654;DHT22;9975;48.046;7.804;2023-01-04T17:31:27;10.30;99.90
19654;DHT22;9975;48.046;7.804;2023-01-04T17:33:54;10.30;99.90
19654;DHT22;9975;48.046;7.804;2023-01-04T17:36:20;10.20;99.90
19654;DHT22;9975;48.046;7.804;2023-01-04T17:38:46;10.30;99.90
19654;DHT22;9975;48.046;7.804;2023-01-04T17:41:17;10.30;99.90
19654;DHT22;9975;48.046;7.804;2023-01-04T17:43:44;10.30;99.90
19654;DHT22;9975;48.046;7.804;2023-01-04T17:46:12;10.30;99.90
19654;DHT22;9975;48.046;7.804;2023-01-04T17:48:38;10.40;99.90
19654;DHT22;9975;48.046;7.804;2023-01-04T17:51:05;10.40;99.90
19654;DHT22;9975;48.046;7.804;2023-01-04T17:53:31;10.50;99.90
19654;DHT22;9975;48.046;7.804;2023-01-04T17:56:01;13.60;99.90
19654;DHT22;9975;48.046;7.804;2023-01-04T17:58:27;10.40;99.90
19654;DHT22;9975;48.046;7.804;2023-01-04T18:00:53;10.40;99.90
19654;DHT22;9975;48.046;7.804;2023-01-04T18:05:54;10.50;99.90
19654;DHT22;9975;48.046;7.804;2023-01-04T18:08:20;10.50;99.90
19654;DHT22;9975;48.046;7.804;2023-01-04T18:10:46;10.50;99.90
19654;DHT22;9975;48.046;7.804;2023-01-04T18:13:12;10.50;99.90
19654;DHT22;9975;48.046;7.804;2023-01-04T18:15:38;10.50;99.90
19654;DHT22;9975;48.046;7.804;2023-01-04T18:18:04;10.60;99.90
19654;DHT22;9975;48.046;7.804;2023-01-04T18:20:29;10.60;99.90
19654;DHT22;9975;48.046;7.804;2023-01-04T18:22:55;10.50;99.90
19654;DHT22;9975;48.046;7.804;2023-01-04T18:25:21;10.60;99.90
19654;DHT22;9975;48.046;7.804;2023-01-04T18:27:47;10.40;99.90
19654;DHT22;9975;48.046;7.804;2023-01-04T18:30:13;10.60;99.90
19654;DHT22;9975;48.046;7.804;2023-01-04T18:32:39;10.60;99.90
19654;DHT22;9975;48.046;7.804;2023-01-04T18:35:06;10.50;99.90
19654;DHT22;9975;48.046;7.804;2023-01-04T18:37:32;10.50;99.90
19654;DHT22;9975;48.046;7.804;2023-01-04T18:39:58;10.50;99.90
19654;DHT22;9975;48.046;7.804;2023-01-04T18:42:23;10.40;99.90
19654;DHT22;9975;48.046;7.804;2023-01-04T18:44:49;10.60;99.90
19654;DHT22;9975;48.046;7.804;2023-01-04T18:47:18;10.50;99.90
19654;DHT22;9975;48.046;7.804;2023-01-04T18:52:10;10.60;99.90
19654;DHT22;9975;48.046;7.804;2023-01-04T18:54:36;10.60;99.90
19654;DHT22;9975;48.046;7.804;2023-01-04T18:57:02;10.50;99.90
19654;DHT22;9975;48.046;7.804;2023-01-04T18:59:28;10.50;99.90
19654;DHT22;9975;48.046;7.804;2023-01-04T19:01:54;10.50;99.90
19654;DHT22;9975;48.046;7.804;2023-01-04T19:04:26;10.60;99.90
19654;DHT22;9975;48.046;7.804;2023-01-04T19:06:52;10.70;99.90
19654;DHT22;9975;48.046;7.804;2023-01-04T19:09:18;10.60;99.90
19654;DHT22;9975;48.046;7.804;2023-01-04T19:14:11;10.70;99.90
19654;DHT22;9975;48.046;7.804;2023-01-04T19:16:37;10.60;99.90
19654;DHT22;9975;48.046;7.804;2023-01-04T19:19:02;10.60;99.90
19654;DHT22;9975;48.046;7.804;2023-01-04T19:21:28;10.70;99.90
19654;DHT22;9975;48.046;7.804;2023-01-04T19:23:54;10.70;99.90
19654;DHT22;9975;48.046;7.804;2023-01-04T19:26:21;10.60;99.90
19654;DHT22;9975;48.046;7.804;2023-01-04T19:28:47;10.60;99.90
19654;DHT22;9975;48.046;7.804;2023-01-04T19:31:15;10.60;99.90
19654;DHT22;9975;48.046;7.804;2023-01-04T19:33:41;10.50;99.90
19654;DHT22;9975;48.046;7.804;2023-01-04T19:36:08;10.60;99.90
19654;DHT22;9975;48.046;7.804;2023-01-04T19:38:35;10.70;99.90
19654;DHT22;9975;48.046;7.804;2023-01-04T19:41:02;10.60;99.90
19654;DHT22;9975;48.046;7.804;2023-01-04T19:45:53;10.60;99.90
19654;DHT22;9975;48.046;7.804;2023-01-04T19:48:19;10.70;99.90
19654;DHT22;9975;48.046;7.804;2023-01-04T19:50:46;10.60;99.90
19654;DHT22;9975;48.046;7.804;2023-01-04T19:53:12;10.60;99.90
19654;DHT22;9975;48.046;7.804;2023-01-04T19:55:39;10.70;99.90
19654;DHT22;9975;48.046;7.804;2023-01-04T20:00:30;10.60;99.90
19654;DHT22;9975;48.046;7.804;2023-01-04T20:02:56;10.60;99.90
19654;DHT22;9975;48.046;7.804;2023-01-04T20:05:22;10.70;99.90
19654;DHT22;9975;48.046;7.804;2023-01-04T20:07:47;10.60;99.90
19654;DHT22;9975;48.046;7.804;2023-01-04T20:10:14;10.60;99.90
19654;DHT22;9975;48.046;7.804;2023-01-04T20:12:39;10.60;99.90
19654;DHT22;9975;48.046;7.804;2023-01-04T20:15:05;10.60;99.90
19654;DHT22;9975;48.046;7.804;2023-01-04T20:17:31;10.60;99.90
19654;DHT22;9975;48.046;7.804;2023-01-04T20:19:57;10.60;99.90
19654;DHT22;9975;48.046;7.804;2023-01-04T20:22:23;10.60;99.90
19654;DHT22;9975;48.046;7.804;2023-01-04T20:24:49;10.60;99.90
19654;DHT22;9975;48.046;7.804;2023-01-04T20:27:15;10.60;99.90
19654;DHT22;9975;48.046;7.804;2023-01-04T20:29:41;10.60;99.90
19654;DHT22;9975;48.046;7.804;2023-01-04T20:34:32;10.50;99.90